AF08 weather

Kotubkhel Airport
Logar Province, Afghanistan

Public forecast

Using degrees Celsius for public forecast. Weather courtesy of forecast.io.

METAR (pilot weather report)

Closest report is Hamid Karzai International Airport, 22.7 nm (42.1 km) N. Retrieved 2019/08/25 09:50 UTC (19 minutes ago):

OAKB 250950Z 30013KT 9999 FEW050TCU SCT070 BKN110 29/06 Q1014 NOSIG RMK A2996 BLU BLU

TAF (pilot weather forecast)

Closest forecast is Hamid Karzai International Airport, 22.7 nm (42.1 km) N. Retrieved 2019/08/25 06:05 UTC (4 hours ago):

TAF OAKB 250505Z 2506/2606 04012KT 8000 FEW040 SCT150 BECMG 2508/2510 06012G22KT FEW040 SCT080 PROB40 TEMPO 2510/2515 06020G35KT 5000 TSRA SCT040CB SCT060 BECMG 2518/2520 VRB02KT CAVOK BECMG 2602/2604 FEW050